Aérodrome :
LOGIN :

S'inscrire | Disclaimer

   EN    FR    IT 

 










Légende :    VFR   VFR Marginal   IFR   IFR Intensif   IFR Très Intensif
Visi : 
Plafond : 
>= 8 km
>= 3000ft
5 à 8 km
1000 à 3000 ft
1500m à 5 km
500 à 1000 ft
800 à 1500m
200 à 500 ft
< 800m
< 200 ft
Symboles :   Orages  Brouillard  Fortes neiges  Fortes précipitations  Vent > 20 kt
SIGMETs :   Divers  Orages  Givrage  Turbulence  Onde Orograph.  Cendres Volcan.







- Altitude de l'aérodrome : 97 ft
- Code IATA : EBJ


EKEB - Esbjerg

DERNIER METAR :
  • 131820Z AUTO 15010KT 120V180 2400NDV BR OVC002/// 03/02 Q0985

METARs EXPIRÉS :
  • 131750Z AUTO 15012KT 4300NDV SHRA BR OVC003/// 03/02 Q0986
  • 131720Z AUTO 15010KT 130V190 8000NDV -SHRA OVC003/// 03/02 Q0987
  • 131650Z AUTO 15012KT 8000NDV -SHRA OVC002/// 03/02 Q0987
  • 131620Z AUTO 16009KT 130V190 8000NDV -SHRA OVC002/// 03/02 Q0988
  • 131550Z AUTO 15010KT 120V190 6000NDV -DZ OVC002/// 03/03 Q0988

TAF TAF EKEB
Valide du 13 à 18h jusqu'au 13 à 23h UTC


131727Z 1318/1323 16015KT 8000 -RADZ BKN008
TEMPO 1318/1323 2000 SHRA BR BKN004 SCT020CB
Pas de NOTAMs connus pour ce terrain.



MET'MAP, la Météo Aéronautique d'un coup d'oeil ! - Copyright ORBIFLY Décembre 2007 - Disclaimer

ORBIFLY MET'MAP TEAM :

Programmation & Développement : Alexandra Zaïnal
Conception & Développement : Baudouin d'Aumeries
Co-Programmation & Développement : Marc-Olivier Méhu
Soutien technique & logistique : Manuel Goepfert

Contact : metmap@orbifly.com




SOURCES & CREDITS :

   NOAA